Time;durP1;ratioP1;P1;durP2;ratioP2;P2;SDS_P1;SDS_P2;PMS_P1;PMS_P2;Temp;Humidity;BMP_temperature;BMP_pressure;BME280_temperature;BME280_humidity;BME280_pressure;Samples;Min_cycle;Max_cycle;Signal;HPM_P1;HPM_P2
2023/05/13 00:00:45;;;;;;;;;;;;;;;;;;4963666;28;20448;-64
2023/05/13 00:03:10;;;;;;;;;;;;;;;;;;4977071;28;19918;-64
2023/05/13 00:05:41;;;;;;;;;;;;;;;;;;4967344;28;20441;-64
2023/05/13 00:08:06;;;;;;;;;;;;;;;;;;4958291;28;20109;-64
2023/05/13 00:10:31;;;;;;;;;;;;;;;;;;4961044;28;19922;-64
2023/05/13 00:12:57;;;;;;;;;;;;;;;;;;4959074;28;19952;-64
2023/05/13 00:15:22;;;;;;;;;;;;;;;;;;4965248;28;19925;-64
2023/05/13 00:17:47;;;;;;;;;;;;;;;;;;4966040;28;20405;-64
2023/05/13 00:20:16;;;;;;;;;;;;;;;;;;4951087;28;20490;-64
2023/05/13 00:22:41;;;;;;;;;;;;;;;;;;4959479;28;19922;-64
2023/05/13 00:25:06;;;;;;;;;;;;;;;;;;4963978;28;19933;-64
2023/05/13 00:27:32;;;;;;;;;;;;;;;;;;4953115;28;20788;-64
2023/05/13 00:29:58;;;;;;;;;;;;;;;;;;4962502;28;19941;-63
2023/05/13 00:32:23;;;;;;;;;;;;;;;;;;4960380;28;20020;-65
2023/05/13 00:34:51;;;;;;;;;;;;;;;;;;4975343;28;21016;-64
2023/05/13 00:37:16;;;;;;;;;;;;;;;;;;4965600;28;19918;-64
2023/05/13 00:39:45;;;;;;;;;;;;;;;;;;4978975;28;20121;-64
2023/05/13 00:42:13;;;;;;;;;;;;;;;;;;4968361;28;21449;-64
2023/05/13 00:44:38;;;;;;;;;;;;;;;;;;4951550;28;19922;-64
2023/05/13 00:47:03;;;;;;;;;;;;;;;;;;4946459;28;19968;-64
2023/05/13 00:52:45;;;;;;;;;;;;;;;;;;4977810;28;20140;-64
2023/05/13 00:55:11;;;;;;;;;;;;;;;;;;4951192;28;20368;-65
2023/05/13 00:57:36;;;;;;;;;;;;;;;;;;4977694;28;19932;-64
2023/05/13 01:00:02;;;;;;;;;;;;;;;;;;4977945;28;19928;-64
2023/05/13 01:02:27;;;;;;;;;;;;;;;;;;4960668;28;19917;-63
2023/05/13 01:04:53;;;;;;;;;;;;;;;;;;4958934;28;20021;-64
2023/05/13 01:07:21;;;;;;;;;;;;;;;;;;4954753;28;19926;-65
2023/05/13 01:09:46;;;;;;;;;;;;;;;;;;4964913;28;19921;-64
2023/05/13 01:12:12;;;;;;;;;;;;;;;;;;4961655;28;20250;-64
2023/05/13 01:14:37;;;;;;;;;;;;;;;;;;4964287;28;19922;-64
2023/05/13 01:17:02;;;;;;;;;;;;;;;;;;4959319;28;19957;-64
2023/05/13 01:19:28;;;;;;;;;;;;;;;;;;4965411;28;20429;-64
2023/05/13 01:21:53;;;;;;;;;;;;;;;;;;4948225;28;20494;-64
2023/05/13 01:24:19;;;;;;;;;;;;;;;;;;4960440;28;19957;-64
2023/05/13 01:26:44;;;;;;;;;;;;;;;;;;4975730;28;20413;-64
2023/05/13 01:29:10;;;;;;;;;;;;;;;;;;4975497;28;19921;-64
2023/05/13 01:31:36;;;;;;;;;;;;;;;;;;4958303;28;19922;-64
2023/05/13 01:34:01;;;;;;;;;;;;;;;;;;4975237;28;19918;-64
2023/05/13 01:36:27;;;;;;;;;;;;;;;;;;4948407;28;19922;-64
2023/05/13 01:38:52;;;;;;;;;;;;;;;;;;4962306;28;19921;-64
2023/05/13 01:44:34;;;;;;;;;;;;;;;;;;4974395;28;19944;-64
2023/05/13 01:47:00;;;;;;;;;;;;;;;;;;4963147;28;20304;-64
2023/05/13 01:49:25;;;;;;;;;;;;;;;;;;4950198;28;19976;-64
2023/05/13 01:51:50;;;;;;;;;;;;;;;;;;4947399;28;19928;-64
2023/05/13 01:54:16;;;;;;;;;;;;;;;;;;4958486;28;20097;-64
2023/05/13 01:56:44;;;;;;;;;;;;;;;;;;4976292;28;19956;-65
2023/05/13 01:59:10;;;;;;;;;;;;;;;;;;4975830;28;20016;-64
2023/05/13 02:01:39;;;;;;;;;;;;;;;;;;4948472;28;20002;-64
2023/05/13 02:04:07;;;;;;;;;;;;;;;;;;4949749;28;19936;-64
2023/05/13 02:06:32;;;;;;;;;;;;;;;;;;4946725;28;19925;-65
2023/05/13 02:09:00;;;;;;;;;;;;;;;;;;4951638;28;19929;-64
2023/05/13 02:11:28;;;;;;;;;;;;;;;;;;4955280;28;19922;-64
2023/05/13 02:16:48;;;;;;;;;;;;;;;;;;4966326;28;20302;-63
2023/05/13 02:19:15;;;;;;;;;;;;;;;;;;4950683;28;19945;-63
2023/05/13 02:21:43;;;;;;;;;;;;;;;;;;4951999;28;20107;-63
2023/05/13 02:24:08;;;;;;;;;;;;;;;;;;4953275;28;19926;-63
2023/05/13 02:26:37;;;;;;;;;;;;;;;;;;4936526;28;20333;-63
2023/05/13 02:29:05;;;;;;;;;;;;;;;;;;4951750;28;19922;-63
2023/05/13 02:34:48;;;;;;;;;;;;;;;;;;4963449;28;20109;-63
2023/05/13 02:37:14;;;;;;;;;;;;;;;;;;4964308;28;20070;-63
2023/05/13 02:39:39;;;;;;;;;;;;;;;;;;4967379;28;19949;-64
2023/05/13 02:42:04;;;;;;;;;;;;;;;;;;4965877;28;19949;-64
2023/05/13 02:44:32;;;;;;;;;;;;;;;;;;4966678;28;20421;-64
2023/05/13 02:46:57;;;;;;;;;;;;;;;;;;4950224;28;20405;-64
2023/05/13 02:49:23;;;;;;;;;;;;;;;;;;4946105;28;19921;-64
2023/05/13 02:51:50;;;;;;;;;;;;;;;;;;4964908;28;20432;-64
2023/05/13 02:54:18;;;;;;;;;;;;;;;;;;4949638;28;19977;-64
2023/05/13 02:56:43;;;;;;;;;;;;;;;;;;4965799;28;19922;-64
2023/05/13 02:59:10;;;;;;;;;;;;;;;;;;4943792;28;20272;-64
2023/05/13 03:01:35;;;;;;;;;;;;;;;;;;4949128;28;19928;-64
2023/05/13 03:04:02;;;;;;;;;;;;;;;;;;4966090;28;19926;-64
2023/05/13 03:06:28;;;;;;;;;;;;;;;;;;4967960;28;20030;-64
2023/05/13 03:08:53;;;;;;;;;;;;;;;;;;4956265;28;20564;-64
2023/05/13 03:11:18;;;;;;;;;;;;;;;;;;4975992;28;20069;-63
2023/05/13 03:13:46;;;;;;;;;;;;;;;;;;4957492;28;20064;-63
2023/05/13 03:16:12;;;;;;;;;;;;;;;;;;4976277;28;19966;-64
2023/05/13 03:18:37;;;;;;;;;;;;;;;;;;4973738;28;19922;-64
2023/05/13 03:21:02;;;;;;;;;;;;;;;;;;4975753;28;19956;-64
2023/05/13 03:23:28;;;;;;;;;;;;;;;;;;4955227;28;20318;-64
2023/05/13 03:25:56;;;;;;;;;;;;;;;;;;4975506;28;19921;-64
2023/05/13 03:28:21;;;;;;;;;;;;;;;;;;4962594;28;19922;-64
2023/05/13 03:30:49;;;;;;;;;;;;;;;;;;4958332;28;20891;-65
2023/05/13 03:36:34;;;;;;;;;;;;;;;;;;4976484;28;20049;-65
2023/05/13 03:39:02;;;;;;;;;;;;;;;;;;4957822;28;19927;-64
2023/05/13 03:41:28;;;;;;;;;;;;;;;;;;4957838;28;19922;-65
2023/05/13 03:43:54;;;;;;;;;;;;;;;;;;4961069;28;19924;-64
2023/05/13 03:46:20;;;;;;;;;;;;;;;;;;4961993;28;19922;-64
2023/05/13 03:48:45;;;;;;;;;;;;;;;;;;4957795;28;20432;-65
2023/05/13 03:51:10;;;;;;;;;;;;;;;;;;4973779;28;19929;-64
2023/05/13 03:53:36;;;;;;;;;;;;;;;;;;4953896;28;19953;-65
2023/05/13 03:56:01;;;;;;;;;;;;;;;;;;4958920;28;20355;-64
2023/05/13 03:58:27;;;;;;;;;;;;;;;;;;4955555;28;19922;-64
2023/05/13 04:00:53;;;;;;;;;;;;;;;;;;4974148;28;20919;-64
2023/05/13 04:03:18;;;;;;;;;;;;;;;;;;4970651;28;19956;-64
2023/05/13 04:05:43;;;;;;;;;;;;;;;;;;4948228;28;21375;-64
2023/05/13 04:08:11;;;;;;;;;;;;;;;;;;4977944;28;19929;-64
2023/05/13 04:10:37;;;;;;;;;;;;;;;;;;4966119;28;20358;-64
2023/05/13 04:13:02;;;;;;;;;;;;;;;;;;4965305;28;20274;-65
2023/05/13 04:15:28;;;;;;;;;;;;;;;;;;4959866;28;19917;-65
2023/05/13 04:17:53;;;;;;;;;;;;;;;;;;4966193;28;19984;-65
2023/05/13 04:20:20;;;;;;;;;;;;;;;;;;4960216;28;20434;-65
2023/05/13 04:22:46;;;;;;;;;;;;;;;;;;4951333;28;20541;-65
2023/05/13 04:25:13;;;;;;;;;;;;;;;;;;4977780;28;19936;-65
2023/05/13 04:27:39;;;;;;;;;;;;;;;;;;4964258;28;19965;-65
2023/05/13 04:30:04;;;;;;;;;;;;;;;;;;4962265;28;19924;-65
2023/05/13 04:32:30;;;;;;;;;;;;;;;;;;4950127;28;19953;-66
2023/05/13 04:34:55;;;;;;;;;;;;;;;;;;4960847;28;20012;-66
2023/05/13 04:37:20;;;;;;;;;;;;;;;;;;4976375;28;19928;-63
2023/05/13 04:39:45;;;;;;;;;;;;;;;;;;4948618;28;20289;-65
2023/05/13 04:42:11;;;;;;;;;;;;;;;;;;4959402;28;19945;-63
2023/05/13 04:44:36;;;;;;;;;;;;;;;;;;4960640;28;20723;-63
2023/05/13 04:47:01;;;;;;;;;;;;;;;;;;4959552;28;19965;-64
2023/05/13 04:49:27;;;;;;;;;;;;;;;;;;4949941;28;20360;-64
2023/05/13 04:51:52;;;;;;;;;;;;;;;;;;4958938;28;20004;-64
2023/05/13 04:54:17;;;;;;;;;;;;;;;;;;4975519;28;19929;-64
2023/05/13 04:56:43;;;;;;;;;;;;;;;;;;4976785;28;20008;-64
2023/05/13 04:59:08;;;;;;;;;;;;;;;;;;4965627;28;19921;-64
2023/05/13 05:01:33;;;;;;;;;;;;;;;;;;4947667;28;19928;-64
2023/05/13 05:03:59;;;;;;;;;;;;;;;;;;4957947;28;20325;-65
2023/05/13 05:06:26;;;;;;;;;;;;;;;;;;4961826;28;20128;-65
2023/05/13 05:08:52;;;;;;;;;;;;;;;;;;4978091;28;20378;-64
2023/05/13 05:11:17;;;;;;;;;;;;;;;;;;4964276;28;19921;-66
2023/05/13 05:13:43;;;;;;;;;;;;;;;;;;4948377;28;20192;-65
2023/05/13 05:16:08;;;;;;;;;;;;;;;;;;4977771;28;20004;-65
2023/05/13 05:18:39;;;;;;;;;;;;;;;;;;4964327;28;19940;-65
2023/05/13 05:21:05;;;;;;;;;;;;;;;;;;4951093;28;19959;-66
2023/05/13 05:23:30;;;;;;;;;;;;;;;;;;4979627;28;19982;-66
2023/05/13 05:25:59;;;;;;;;;;;;;;;;;;4974765;28;20619;-66
2023/05/13 05:28:24;;;;;;;;;;;;;;;;;;4963261;28;19944;-65
2023/05/13 05:30:50;;;;;;;;;;;;;;;;;;4965991;28;19976;-66
2023/05/13 05:33:16;;;;;;;;;;;;;;;;;;4963419;28;20377;-65
2023/05/13 05:35:43;;;;;;;;;;;;;;;;;;4964886;28;20070;-65
2023/05/13 05:38:08;;;;;;;;;;;;;;;;;;4959104;28;19922;-66
2023/05/13 05:40:33;;;;;;;;;;;;;;;;;;4973466;28;19921;-64
2023/05/13 05:42:59;;;;;;;;;;;;;;;;;;4960437;28;19918;-64
2023/05/13 05:45:24;;;;;;;;;;;;;;;;;;4968259;28;20472;-64
2023/05/13 05:47:49;;;;;;;;;;;;;;;;;;4974620;28;19925;-65
2023/05/13 05:50:15;;;;;;;;;;;;;;;;;;4974207;28;20527;-66
2023/05/13 05:52:40;;;;;;;;;;;;;;;;;;4975142;28;19995;-65
2023/05/13 05:55:06;;;;;;;;;;;;;;;;;;4956559;28;19917;-65
2023/05/13 05:57:31;;;;;;;;;;;;;;;;;;4947383;28;19984;-65
2023/05/13 05:59:56;;;;;;;;;;;;;;;;;;4956926;28;20004;-65
2023/05/13 06:02:21;;;;;;;;;;;;;;;;;;4963198;28;20529;-65
2023/05/13 06:04:49;;;;;;;;;;;;;;;;;;4971355;28;19937;-65
2023/05/13 06:07:14;;;;;;;;;;;;;;;;;;4976499;28;19932;-65
2023/05/13 06:09:40;;;;;;;;;;;;;;;;;;4948086;28;20528;-65
2023/05/13 06:12:05;;;;;;;;;;;;;;;;;;4959453;28;19917;-65
2023/05/13 06:14:30;;;;;;;;;;;;;;;;;;4975620;28;19922;-65
2023/05/13 06:16:56;;;;;;;;;;;;;;;;;;4958973;28;19980;-67
2023/05/13 06:19:21;;;;;;;;;;;;;;;;;;4958809;28;20076;-66
2023/05/13 06:21:47;;;;;;;;;;;;;;;;;;4976525;28;19922;-66
2023/05/13 06:24:12;;;;;;;;;;;;;;;;;;4975773;28;19921;-66
2023/05/13 06:26:38;;;;;;;;;;;;;;;;;;4956583;28;20373;-66
2023/05/13 06:29:03;;;;;;;;;;;;;;;;;;4959570;28;20012;-66
2023/05/13 06:31:31;;;;;;;;;;;;;;;;;;4941619;28;20773;-67
2023/05/13 06:33:56;;;;;;;;;;;;;;;;;;4969701;28;21459;-67
2023/05/13 06:36:21;;;;;;;;;;;;;;;;;;4952108;28;20296;-66
2023/05/13 06:38:47;;;;;;;;;;;;;;;;;;4957259;28;20266;-67
2023/05/13 06:41:12;;;;;;;;;;;;;;;;;;4950967;28;20469;-67
2023/05/13 06:43:37;;;;;;;;;;;;;;;;;;4951148;28;21811;-67
2023/05/13 06:46:03;;;;;;;;;;;;;;;;;;4951812;28;20323;-67
2023/05/13 06:48:28;;;;;;;;;;;;;;;;;;4941081;28;19941;-67
2023/05/13 06:50:54;;;;;;;;;;;;;;;;;;4962349;28;19929;-67
2023/05/13 06:53:19;;;;;;;;;;;;;;;;;;4974249;28;19921;-67
2023/05/13 06:55:44;;;;;;;;;;;;;;;;;;4958566;28;19921;-68
2023/05/13 06:58:10;;;;;;;;;;;;;;;;;;4975241;28;20398;-67
2023/05/13 07:00:35;;;;;;;;;;;;;;;;;;4945808;28;19922;-67
2023/05/13 07:03:02;;;;;;;;;;;;;;;;;;4972154;28;20489;-68
2023/05/13 07:05:27;;;;;;;;;;;;;;;;;;4972898;28;20036;-67
2023/05/13 07:07:53;;;;;;;;;;;;;;;;;;4952949;28;20484;-68
2023/05/13 07:10:18;;;;;;;;;;;;;;;;;;4975002;28;20007;-67
2023/05/13 07:12:46;;;;;;;;;;;;;;;;;;4958372;28;20384;-67
2023/05/13 07:15:11;;;;;;;;;;;;;;;;;;4971674;28;19975;-67
2023/05/13 07:17:39;;;;;;;;;;;;;;;;;;4959050;28;19922;-67
2023/05/13 07:20:05;;;;;;;;;;;;;;;;;;4957571;28;19924;-67
2023/05/13 07:22:30;;;;;;;;;;;;;;;;;;4975184;28;20033;-67
2023/05/13 07:24:55;;;;;;;;;;;;;;;;;;4969635;28;20599;-67
2023/05/13 07:27:21;;;;;;;;;;;;;;;;;;4947137;28;19941;-67
2023/05/13 07:29:46;;;;;;;;;;;;;;;;;;4959308;28;19922;-67
2023/05/13 07:32:11;;;;;;;;;;;;;;;;;;4970531;28;20395;-67
2023/05/13 07:34:37;;;;;;;;;;;;;;;;;;4969952;28;19980;-67
2023/05/13 07:37:05;;;;;;;;;;;;;;;;;;4956740;28;20000;-67
2023/05/13 07:39:33;;;;;;;;;;;;;;;;;;4962494;28;20510;-67
2023/05/13 07:41:58;;;;;;;;;;;;;;;;;;4960459;28;19968;-69
2023/05/13 07:44:26;;;;;;;;;;;;;;;;;;4947995;28;19991;-69
2023/05/13 07:46:52;;;;;;;;;;;;;;;;;;4972378;28;20020;-67
2023/05/13 07:49:17;;;;;;;;;;;;;;;;;;4966085;28;20630;-66
2023/05/13 07:51:42;;;;;;;;;;;;;;;;;;4959331;28;20047;-67
2023/05/13 07:54:08;;;;;;;;;;;;;;;;;;4957595;28;20041;-67
2023/05/13 07:56:33;;;;;;;;;;;;;;;;;;4974572;28;19967;-67
2023/05/13 07:58:59;;;;;;;;;;;;;;;;;;4978830;28;20646;-65
2023/05/13 08:01:24;;;;;;;;;;;;;;;;;;4954958;28;20365;-66
2023/05/13 08:03:49;;;;;;;;;;;;;;;;;;4959975;28;20301;-66
2023/05/13 08:06:15;;;;;;;;;;;;;;;;;;4959829;28;20309;-66
2023/05/13 08:08:42;;;;;;;;;;;;;;;;;;4947924;28;20847;-65
2023/05/13 08:11:08;;;;;;;;;;;;;;;;;;4967243;28;20547;-66
2023/05/13 08:13:33;;;;;;;;;;;;;;;;;;4964861;28;19917;-65
2023/05/13 08:16:02;;;;;;;;;;;;;;;;;;4961849;28;19944;-66
2023/05/13 08:18:27;;;;;;;;;;;;;;;;;;4962734;28;19921;-66
2023/05/13 08:20:55;;;;;;;;;;;;;;;;;;4950739;28;19918;-65
2023/05/13 08:23:20;;;;;;;;;;;;;;;;;;4979448;28;19922;-64
2023/05/13 08:25:49;;;;;;;;;;;;;;;;;;4962416;28;20302;-66
2023/05/13 08:28:14;;;;;;;;;;;;;;;;;;4967080;28;19956;-65
2023/05/13 08:30:43;;;;;;;;;;;;;;;;;;4979025;28;19944;-65
2023/05/13 08:33:08;;;;;;;;;;;;;;;;;;4963013;28;19918;-65
2023/05/13 08:35:33;;;;;;;;;;;;;;;;;;4974564;28;19996;-65
2023/05/13 08:38:04;;;;;;;;;;;;;;;;;;4951120;28;19928;-65
2023/05/13 08:40:29;;;;;;;;;;;;;;;;;;4967125;28;19918;-64
2023/05/13 08:46:11;;;;;;;;;;;;;;;;;;4977348;28;20393;-66
2023/05/13 08:48:36;;;;;;;;;;;;;;;;;;4964199;28;19929;-66
2023/05/13 08:51:01;;;;;;;;;;;;;;;;;;4960324;28;19922;-66
2023/05/13 08:53:27;;;;;;;;;;;;;;;;;;4973079;28;19984;-66
2023/05/13 08:55:52;;;;;;;;;;;;;;;;;;4958293;28;19926;-67
2023/05/13 08:58:18;;;;;;;;;;;;;;;;;;4974434;28;20339;-67
2023/05/13 09:00:43;;;;;;;;;;;;;;;;;;4959527;28;20056;-65
2023/05/13 09:03:08;;;;;;;;;;;;;;;;;;4948472;28;19921;-65
2023/05/13 09:05:34;;;;;;;;;;;;;;;;;;4947750;28;19976;-65
2023/05/13 09:07:59;;;;;;;;;;;;;;;;;;4977085;28;20815;-65
2023/05/13 09:10:24;;;;;;;;;;;;;;;;;;4976636;28;19928;-65
2023/05/13 09:12:50;;;;;;;;;;;;;;;;;;4963841;28;19929;-65
2023/05/13 09:15:16;;;;;;;;;;;;;;;;;;4972097;28;20459;-65
2023/05/13 09:17:41;;;;;;;;;;;;;;;;;;4978645;28;19921;-64
2023/05/13 09:20:07;;;;;;;;;;;;;;;;;;4946055;28;19925;-64
2023/05/13 09:22:32;;;;;;;;;;;;;;;;;;4976328;28;20005;-65
2023/05/13 09:24:58;;;;;;;;;;;;;;;;;;4957528;28;19972;-65
2023/05/13 09:27:23;;;;;;;;;;;;;;;;;;4975031;28;19964;-65
2023/05/13 09:29:49;;;;;;;;;;;;;;;;;;4963565;28;19926;-65
2023/05/13 09:32:14;;;;;;;;;;;;;;;;;;4957584;28;19921;-64
2023/05/13 09:34:39;;;;;;;;;;;;;;;;;;4973344;28;21883;-63
2023/05/13 09:37:05;;;;;;;;;;;;;;;;;;4948855;28;19984;-65
2023/05/13 09:39:30;;;;;;;;;;;;;;;;;;4959229;28;20025;-64
2023/05/13 09:41:58;;;;;;;;;;;;;;;;;;4943316;28;20008;-64
2023/05/13 09:44:23;;;;;;;;;;;;;;;;;;4976176;28;19931;-64
2023/05/13 09:46:48;;;;;;;;;;;;;;;;;;4960487;28;19922;-65
2023/05/13 09:49:14;;;;;;;;;;;;;;;;;;4954556;28;19944;-64
2023/05/13 09:51:39;;;;;;;;;;;;;;;;;;4972671;28;20609;-64
2023/05/13 09:54:05;;;;;;;;;;;;;;;;;;4974581;28;19917;-64
2023/05/13 09:56:30;;;;;;;;;;;;;;;;;;4950488;28;19922;-64
2023/05/13 09:58:56;;;;;;;;;;;;;;;;;;4975648;28;19917;-64
2023/05/13 10:01:23;;;;;;;;;;;;;;;;;;4977116;28;19964;-65
2023/05/13 10:03:51;;;;;;;;;;;;;;;;;;4957127;28;19925;-64
2023/05/13 10:06:21;;;;;;;;;;;;;;;;;;4962590;28;19921;-64
2023/05/13 10:08:46;;;;;;;;;;;;;;;;;;4975713;28;20589;-64
2023/05/13 10:11:14;;;;;;;;;;;;;;;;;;4950572;28;19918;-65
2023/05/13 10:13:39;;;;;;;;;;;;;;;;;;4962591;28;19926;-65
2023/05/13 10:16:08;;;;;;;;;;;;;;;;;;4956190;28;20220;-65
2023/05/13 10:18:33;;;;;;;;;;;;;;;;;;4963857;28;19917;-64
2023/05/13 10:20:58;;;;;;;;;;;;;;;;;;4946208;28;19944;-65
2023/05/13 10:23:24;;;;;;;;;;;;;;;;;;4957095;28;19917;-64
2023/05/13 10:25:51;;;;;;;;;;;;;;;;;;4975064;28;21960;-66
2023/05/13 10:28:17;;;;;;;;;;;;;;;;;;4977835;28;20325;-65
2023/05/13 10:30:42;;;;;;;;;;;;;;;;;;4947265;28;19925;-65
2023/05/13 10:33:08;;;;;;;;;;;;;;;;;;4958899;28;19921;-66
2023/05/13 10:35:33;;;;;;;;;;;;;;;;;;4976004;28;19925;-65
2023/05/13 10:37:59;;;;;;;;;;;;;;;;;;4977123;28;19931;-65
2023/05/13 10:40:24;;;;;;;;;;;;;;;;;;4958866;28;19976;-64
2023/05/13 10:42:49;;;;;;;;;;;;;;;;;;4962593;28;20292;-65
2023/05/13 10:45:15;;;;;;;;;;;;;;;;;;4956962;28;19925;-65
2023/05/13 10:47:40;;;;;;;;;;;;;;;;;;4944213;28;19922;-65
2023/05/13 10:50:05;;;;;;;;;;;;;;;;;;4943969;28;19921;-65
2023/05/13 10:52:31;;;;;;;;;;;;;;;;;;4956732;28;19921;-64
2023/05/13 10:54:56;;;;;;;;;;;;;;;;;;4961342;28;19931;-64
2023/05/13 10:57:22;;;;;;;;;;;;;;;;;;4957007;28;19917;-65
2023/05/13 10:59:47;;;;;;;;;;;;;;;;;;4943949;28;20727;-64
2023/05/13 11:02:12;;;;;;;;;;;;;;;;;;4973599;28;20371;-64
2023/05/13 11:04:38;;;;;;;;;;;;;;;;;;4944613;28;21467;-66
2023/05/13 11:07:03;;;;;;;;;;;;;;;;;;4973401;28;19930;-65
2023/05/13 11:09:28;;;;;;;;;;;;;;;;;;4971809;28;19974;-65
2023/05/13 11:11:54;;;;;;;;;;;;;;;;;;4974002;28;19933;-65
2023/05/13 11:17:38;;;;;;;;;;;;;;;;;;4977988;28;19964;-64
2023/05/13 11:20:04;;;;;;;;;;;;;;;;;;4977548;28;20648;-64
2023/05/13 11:22:29;;;;;;;;;;;;;;;;;;4977731;28;19921;-66
2023/05/13 11:24:54;;;;;;;;;;;;;;;;;;4963938;28;20591;-66
2023/05/13 11:27:20;;;;;;;;;;;;;;;;;;4963471;28;20285;-65
2023/05/13 11:29:45;;;;;;;;;;;;;;;;;;4960404;28;20020;-63
2023/05/13 11:32:11;;;;;;;;;;;;;;;;;;4964140;28;20499;-64
2023/05/13 11:34:36;;;;;;;;;;;;;;;;;;4956822;28;20024;-64
2023/05/13 11:37:05;;;;;;;;;;;;;;;;;;4954338;28;19929;-65
2023/05/13 11:39:31;;;;;;;;;;;;;;;;;;4965197;28;19961;-64
2023/05/13 11:41:56;;;;;;;;;;;;;;;;;;4949635;28;20069;-64
2023/05/13 11:44:22;;;;;;;;;;;;;;;;;;4956553;28;20748;-65
2023/05/13 11:46:47;;;;;;;;;;;;;;;;;;4961103;28;19917;-67
2023/05/13 11:49:12;;;;;;;;;;;;;;;;;;4965107;28;19918;-65
2023/05/13 11:51:38;;;;;;;;;;;;;;;;;;4978274;28;20265;-66
2023/05/13 11:54:03;;;;;;;;;;;;;;;;;;4976508;28;19972;-63
2023/05/13 11:56:29;;;;;;;;;;;;;;;;;;4950834;28;19957;-65
2023/05/13 11:58:54;;;;;;;;;;;;;;;;;;4979848;28;19976;-64
2023/05/13 12:01:24;;;;;;;;;;;;;;;;;;4973195;28;20119;-65
2023/05/13 12:07:08;;;;;;;;;;;;;;;;;;4975234;28;20021;-64
2023/05/13 12:09:39;;;;;;;;;;;;;;;;;;4976146;28;20505;-64
2023/05/13 12:12:04;;;;;;;;;;;;;;;;;;4960806;28;20056;-65
2023/05/13 12:14:32;;;;;;;;;;;;;;;;;;4944102;28;19960;-65
2023/05/13 12:16:58;;;;;;;;;;;;;;;;;;4959828;28;19949;-65
2023/05/13 12:22:49;;;;;;;;;;;;;;;;;;4972712;28;20086;-64
2023/05/13 12:25:17;;;;;;;;;;;;;;;;;;4966394;28;20055;-64
2023/05/13 12:27:45;;;;;;;;;;;;;;;;;;4975500;28;21448;-65
2023/05/13 12:30:10;;;;;;;;;;;;;;;;;;4974233;28;19921;-64
2023/05/13 12:32:38;;;;;;;;;;;;;;;;;;4975948;28;21414;-64
2023/05/13 12:35:03;;;;;;;;;;;;;;;;;;4959610;28;19932;-67
2023/05/13 12:37:31;;;;;;;;;;;;;;;;;;4950757;28;20274;-65
2023/05/13 12:39:57;;;;;;;;;;;;;;;;;;4956188;28;19921;-65
2023/05/13 12:42:23;;;;;;;;;;;;;;;;;;4959347;28;20157;-64
2023/05/13 12:44:52;;;;;;;;;;;;;;;;;;4944770;28;20179;-63
2023/05/13 12:47:19;;;;;;;;;;;;;;;;;;4975006;28;19917;-64
2023/05/13 12:49:44;;;;;;;;;;;;;;;;;;4958320;28;20301;-63
2023/05/13 12:52:09;;;;;;;;;;;;;;;;;;4977406;28;19948;-64
2023/05/13 12:54:34;;;;;;;;;;;;;;;;;;4959483;28;20507;-66
2023/05/13 12:57:00;;;;;;;;;;;;;;;;;;4975941;28;19921;-64
2023/05/13 12:59:30;;;;;;;;;;;;;;;;;;4977395;28;20383;-63
2023/05/13 13:01:58;;;;;;;;;;;;;;;;;;4958596;28;19922;-64
2023/05/13 13:04:26;;;;;;;;;;;;;;;;;;4973790;28;19964;-64
2023/05/13 13:06:51;;;;;;;;;;;;;;;;;;4975862;28;19929;-67
2023/05/13 13:09:17;;;;;;;;;;;;;;;;;;4946092;28;20415;-63
2023/05/13 13:11:42;;;;;;;;;;;;;;;;;;4956612;28;19921;-64
2023/05/13 13:14:08;;;;;;;;;;;;;;;;;;4949122;28;19928;-65
2023/05/13 13:16:33;;;;;;;;;;;;;;;;;;4951024;28;19921;-65
2023/05/13 13:18:59;;;;;;;;;;;;;;;;;;4958322;28;20988;-64
2023/05/13 13:21:27;;;;;;;;;;;;;;;;;;4945563;28;20277;-63
2023/05/13 13:23:52;;;;;;;;;;;;;;;;;;4944150;28;19925;-65
2023/05/13 13:26:21;;;;;;;;;;;;;;;;;;4958739;28;20140;-64
2023/05/13 13:28:49;;;;;;;;;;;;;;;;;;4961071;28;20349;-65
2023/05/13 13:31:18;;;;;;;;;;;;;;;;;;4958629;28;19921;-65
2023/05/13 13:33:43;;;;;;;;;;;;;;;;;;4945192;28;19917;-64
2023/05/13 13:36:10;;;;;;;;;;;;;;;;;;4958831;28;20489;-63
2023/05/13 13:41:52;;;;;;;;;;;;;;;;;;4973401;28;19923;-63
2023/05/13 13:44:20;;;;;;;;;;;;;;;;;;4958791;28;19933;-64
2023/05/13 13:46:45;;;;;;;;;;;;;;;;;;4944063;28;19922;-64
2023/05/13 13:49:13;;;;;;;;;;;;;;;;;;4973932;28;20008;-64
2023/05/13 13:54:55;;;;;;;;;;;;;;;;;;4972422;28;19976;-65
2023/05/13 13:57:20;;;;;;;;;;;;;;;;;;4963843;28;20059;-65
2023/05/13 13:59:46;;;;;;;;;;;;;;;;;;4945376;28;20184;-64
2023/05/13 14:02:11;;;;;;;;;;;;;;;;;;4967738;28;19921;-64
2023/05/13 14:07:56;;;;;;;;;;;;;;;;;;4975749;28;20361;-64
2023/05/13 14:10:21;;;;;;;;;;;;;;;;;;4954890;28;20044;-65
2023/05/13 14:12:46;;;;;;;;;;;;;;;;;;4944726;28;19918;-64
2023/05/13 14:15:12;;;;;;;;;;;;;;;;;;4961777;28;19979;-65
2023/05/13 14:17:37;;;;;;;;;;;;;;;;;;4957224;28;20020;-66
2023/05/13 14:20:05;;;;;;;;;;;;;;;;;;4961093;28;20215;-65
2023/05/13 14:22:33;;;;;;;;;;;;;;;;;;4976889;28;19937;-65
2023/05/13 14:25:00;;;;;;;;;;;;;;;;;;4961772;28;19922;-64
2023/05/13 14:27:28;;;;;;;;;;;;;;;;;;4974276;28;19963;-65
2023/05/13 14:29:53;;;;;;;;;;;;;;;;;;4953181;28;20630;-68
2023/05/13 14:32:21;;;;;;;;;;;;;;;;;;4959003;28;20312;-65
2023/05/13 14:34:47;;;;;;;;;;;;;;;;;;4950701;28;19926;-64
2023/05/13 14:37:12;;;;;;;;;;;;;;;;;;4955603;28;20614;-64
2023/05/13 14:39:37;;;;;;;;;;;;;;;;;;4949476;28;20391;-66
2023/05/13 14:42:02;;;;;;;;;;;;;;;;;;4956206;28;20825;-65
2023/05/13 14:44:28;;;;;;;;;;;;;;;;;;4959210;28;20139;-63
2023/05/13 14:46:53;;;;;;;;;;;;;;;;;;4955516;28;19921;-64
2023/05/13 14:49:23;;;;;;;;;;;;;;;;;;4972002;28;19952;-63
2023/05/13 14:51:49;;;;;;;;;;;;;;;;;;4947773;28;20444;-63
2023/05/13 14:54:17;;;;;;;;;;;;;;;;;;4957200;28;19952;-63
2023/05/13 14:56:42;;;;;;;;;;;;;;;;;;4976382;28;19918;-64
2023/05/13 14:59:13;;;;;;;;;;;;;;;;;;4947464;28;20041;-64
2023/05/13 15:01:41;;;;;;;;;;;;;;;;;;4956861;28;19967;-64
2023/05/13 15:04:06;;;;;;;;;;;;;;;;;;4943587;28;19917;-63
2023/05/13 15:06:32;;;;;;;;;;;;;;;;;;4962156;28;20057;-63
2023/05/13 15:09:06;;;;;;;;;;;;;;;;;;4960082;28;19922;-64
2023/05/13 15:11:32;;;;;;;;;;;;;;;;;;4963591;28;19947;-63
2023/05/13 15:14:02;;;;;;;;;;;;;;;;;;4960272;28;20798;-63
2023/05/13 15:16:27;;;;;;;;;;;;;;;;;;4976913;28;19938;-63
2023/05/13 15:18:52;;;;;;;;;;;;;;;;;;4975204;28;19921;-63
2023/05/13 15:21:23;;;;;;;;;;;;;;;;;;4960483;28;19928;-63
2023/05/13 15:23:48;;;;;;;;;;;;;;;;;;4957832;28;19926;-64
2023/05/13 15:26:13;;;;;;;;;;;;;;;;;;4975725;28;19932;-64
2023/05/13 15:28:42;;;;;;;;;;;;;;;;;;4947753;28;20348;-65
2023/05/13 15:31:07;;;;;;;;;;;;;;;;;;4948399;28;19921;-64
2023/05/13 15:33:32;;;;;;;;;;;;;;;;;;4975102;28;20100;-64
2023/05/13 15:36:00;;;;;;;;;;;;;;;;;;4971931;28;20019;-63
2023/05/13 15:38:28;;;;;;;;;;;;;;;;;;4954732;28;20471;-63
2023/05/13 15:40:53;;;;;;;;;;;;;;;;;;4974955;28;19917;-62
2023/05/13 15:43:19;;;;;;;;;;;;;;;;;;4969369;28;19934;-63
2023/05/13 15:45:48;;;;;;;;;;;;;;;;;;4956291;28;20431;-64
2023/05/13 15:48:13;;;;;;;;;;;;;;;;;;4971528;28;19922;-64
2023/05/13 15:50:39;;;;;;;;;;;;;;;;;;4962422;28;20341;-64
2023/05/13 15:53:09;;;;;;;;;;;;;;;;;;4956066;28;19921;-63
2023/05/13 15:55:36;;;;;;;;;;;;;;;;;;4947856;28;19960;-63
2023/05/13 15:58:04;;;;;;;;;;;;;;;;;;4956994;28;19925;-63
2023/05/13 16:00:30;;;;;;;;;;;;;;;;;;4962119;28;19918;-63
2023/05/13 16:02:55;;;;;;;;;;;;;;;;;;4948469;28;19921;-63
2023/05/13 16:05:23;;;;;;;;;;;;;;;;;;4977955;28;19953;-64
2023/05/13 16:07:49;;;;;;;;;;;;;;;;;;4959148;28;19926;-63
2023/05/13 16:10:14;;;;;;;;;;;;;;;;;;4962875;28;19968;-63
2023/05/13 16:12:39;;;;;;;;;;;;;;;;;;4961526;28;20373;-63
2023/05/13 16:15:05;;;;;;;;;;;;;;;;;;4947906;28;19969;-63
2023/05/13 16:17:30;;;;;;;;;;;;;;;;;;4959932;28;20239;-63
2023/05/13 16:19:58;;;;;;;;;;;;;;;;;;4959034;28;19924;-63
2023/05/13 16:22:24;;;;;;;;;;;;;;;;;;4977262;28;19922;-63
2023/05/13 16:24:52;;;;;;;;;;;;;;;;;;4979639;28;19917;-63
2023/05/13 16:27:20;;;;;;;;;;;;;;;;;;4949886;28;19972;-62
2023/05/13 16:29:46;;;;;;;;;;;;;;;;;;4942137;28;19976;-63
2023/05/13 16:32:11;;;;;;;;;;;;;;;;;;4965573;28;19951;-62
2023/05/13 16:34:36;;;;;;;;;;;;;;;;;;4966250;28;19921;-62
2023/05/13 16:37:01;;;;;;;;;;;;;;;;;;4973328;28;19981;-63
2023/05/13 16:42:43;;;;;;;;;;;;;;;;;;4979028;28;19992;-63
2023/05/13 16:45:14;;;;;;;;;;;;;;;;;;4974786;28;20456;-62
2023/05/13 16:47:43;;;;;;;;;;;;;;;;;;4957970;28;19922;-64
2023/05/13 16:50:13;;;;;;;;;;;;;;;;;;4949001;28;19918;-63
2023/05/13 16:52:38;;;;;;;;;;;;;;;;;;4956716;28;19960;-64
2023/05/13 16:55:04;;;;;;;;;;;;;;;;;;4973970;28;20411;-63
2023/05/13 16:57:29;;;;;;;;;;;;;;;;;;4972825;28;20374;-64
2023/05/13 17:00:00;;;;;;;;;;;;;;;;;;4960715;28;19924;-63
2023/05/13 17:02:28;;;;;;;;;;;;;;;;;;4945615;28;21411;-64
2023/05/13 17:04:56;;;;;;;;;;;;;;;;;;4956817;28;20012;-63
2023/05/13 17:07:24;;;;;;;;;;;;;;;;;;4957041;28;19929;-64
2023/05/13 17:09:49;;;;;;;;;;;;;;;;;;4939962;28;19995;-63
2023/05/13 17:12:20;;;;;;;;;;;;;;;;;;4950057;28;19922;-63
2023/05/13 17:14:45;;;;;;;;;;;;;;;;;;4958868;28;19926;-63
2023/05/13 17:17:13;;;;;;;;;;;;;;;;;;4965513;28;20319;-64
2023/05/13 17:19:38;;;;;;;;;;;;;;;;;;4976896;28;20345;-63